Time;durP1;ratioP1;P1;durP2;ratioP2;P2;SDS_P1;SDS_P2;PMS_P1;PMS_P2;Temp;Humidity;BMP_temperature;BMP_pressure;BME280_temperature;BME280_humidity;BME280_pressure;Samples;Min_cycle;Max_cycle;Signal;HPM_P1;HPM_P2
2024/01/11 00:01:20;;;;;;;42.55;27.90;;;;;;;16.14;38.18;93974.03;4872226;29;20048;-88
2024/01/11 00:03:45;;;;;;;38.83;27.75;;;;;;;16.06;38.34;93988.06;4869070;29;20096;-88
2024/01/11 00:06:10;;;;;;;40.10;27.60;;;;;;;16.02;38.59;93979.34;4870570;29;20049;-89
2024/01/11 00:08:36;;;;;;;35.50;24.77;;;;;;;16.09;38.09;93987.13;4873044;29;20043;-89
2024/01/11 00:11:01;;;;;;;37.17;26.85;;;;;;;16.01;38.63;93988.03;4872946;29;20037;-88
2024/01/11 00:13:27;;;;;;;40.22;28.05;;;;;;;16.07;38.39;93984.13;4886627;29;20041;-88
2024/01/11 00:15:53;;;;;;;35.78;26.63;;;;;;;16.05;38.44;93980.38;4872405;29;20049;-88
2024/01/11 00:18:19;;;;;;;37.38;26.42;;;;;;;16.19;37.78;93984.97;4853338;29;20068;-88
2024/01/11 00:20:45;;;;;;;38.85;26.23;;;;;;;16.16;37.72;93985.19;4889045;29;20049;-88
2024/01/11 00:23:10;;;;;;;37.75;25.58;;;;;;;16.17;37.95;93989.41;4867043;29;20073;-88
2024/01/11 00:25:36;;;;;;;36.00;25.83;;;;;;;16.09;38.35;93981.66;4871671;29;20134;-88
2024/01/11 00:28:01;;;;;;;37.00;25.88;;;;;;;16.05;38.65;93992.03;4857324;29;20048;-88
2024/01/11 00:30:27;;;;;;;33.97;24.73;;;;;;;16.13;38.43;93991.63;4856922;29;20580;-88
2024/01/11 00:32:52;;;;;;;34.88;24.33;;;;;;;16.19;38.06;93984.25;4871987;29;20056;-88
2024/01/11 00:35:18;;;;;;;31.55;23.80;;;;;;;16.07;38.29;93989.56;4871731;29;20053;-88
2024/01/11 00:37:43;;;;;;;34.38;24.65;;;;;;;16.09;37.64;93995.28;4872544;29;20044;-88
2024/01/11 00:40:09;;;;;;;35.47;24.00;;;;;;;16.09;38.08;93989.84;4872383;29;20041;-89
2024/01/11 00:42:35;;;;;;;31.30;23.13;;;;;;;16.05;37.94;93994.00;4856366;29;20437;-88
2024/01/11 00:45:00;;;;;;;31.77;24.08;;;;;;;16.05;38.11;93999.47;4872325;29;20041;-89
2024/01/11 00:47:26;;;;;;;31.88;22.88;;;;;;;16.06;38.00;93995.50;4872228;29;20162;-88
2024/01/11 00:49:52;;;;;;;29.92;21.52;;;;;;;16.05;37.93;93986.56;4873726;29;20043;-88
2024/01/11 00:52:17;;;;;;;29.85;21.98;;;;;;;16.03;38.27;93991.75;4861254;29;20045;-88
2024/01/11 00:54:43;;;;;;;31.42;22.60;;;;;;;16.09;37.66;93992.56;4858567;29;20053;-88
2024/01/11 00:57:12;;;;;;;31.90;22.33;;;;;;;16.00;38.30;93995.47;4855415;29;20049;-88
2024/01/11 00:59:40;;;;;;;29.55;22.27;;;;;;;16.07;37.78;93999.72;4856710;29;20055;-88
2024/01/11 01:02:05;;;;;;;31.25;22.70;;;;;;;16.02;37.86;93998.44;4840724;29;20072;-88
2024/01/11 01:04:31;;;;;;;29.67;21.63;;;;;;;16.08;37.74;93998.50;4871066;29;20624;-88
2024/01/11 01:06:57;;;;;;;29.58;21.00;;;;;;;16.08;37.95;93996.53;4843717;29;20044;-88
2024/01/11 01:09:22;;;;;;;30.52;22.55;;;;;;;16.06;38.14;93996.25;4862328;29;20087;-88
2024/01/11 01:11:50;;;;;;;31.35;22.20;;;;;;;16.04;38.54;93995.97;4851111;29;20590;-89
2024/01/11 01:14:15;;;;;;;28.77;21.73;;;;;;;16.06;37.88;94001.72;4849101;29;20158;-88
2024/01/11 01:16:41;;;;;;;32.00;21.40;;;;;;;16.09;37.96;93998.03;4854628;29;20067;-88
2024/01/11 01:19:07;;;;;;;28.48;20.60;;;;;;;16.04;37.80;94003.41;4834829;29;20048;-88
2024/01/11 01:21:32;;;;;;;30.15;21.52;;;;;;;16.02;38.35;94003.91;4864784;29;20063;-88
2024/01/11 01:23:58;;;;;;;26.63;20.00;;;;;;;16.02;37.86;94006.63;4860194;29;20045;-88
2024/01/11 01:26:23;;;;;;;30.52;21.33;;;;;;;16.01;37.70;93993.50;4858061;29;20045;-88
2024/01/11 01:28:49;;;;;;;28.77;20.63;;;;;;;16.00;38.01;93997.44;4859905;29;20055;-88
2024/01/11 01:31:14;;;;;;;27.15;20.90;;;;;;;15.97;38.41;94003.84;4859992;29;20043;-88
2024/01/11 01:33:40;;;;;;;29.85;19.75;;;;;;;16.00;38.29;94014.56;4875191;29;20055;-89
2024/01/11 01:36:09;;;;;;;26.92;19.20;;;;;;;16.01;38.36;94004.41;4888204;29;20037;-88
2024/01/11 01:38:35;;;;;;;27.95;20.13;;;;;;;16.06;37.74;94000.97;4873323;29;20500;-88
2024/01/11 01:41:00;;;;;;;26.48;19.65;;;;;;;16.07;38.30;94002.47;4855075;29;20119;-88
2024/01/11 01:43:25;;;;;;;27.35;19.40;;;;;;;16.14;37.73;94006.75;4860265;29;20420;-88
2024/01/11 01:45:51;;;;;;;29.13;20.25;;;;;;;16.02;38.15;94016.81;4867014;29;21185;-88
2024/01/11 01:48:17;;;;;;;24.90;18.85;;;;;;;16.11;37.98;94016.63;4869800;29;20075;-88
2024/01/11 01:50:45;;;;;;;28.40;19.23;;;;;;;16.12;37.94;94012.69;4884738;29;20040;-88
2024/01/11 01:53:11;;;;;;;26.10;18.45;;;;;;;16.05;38.40;94015.81;4860452;29;20140;-88
2024/01/11 01:55:37;;;;;;;26.77;18.20;;;;;;;16.09;37.79;94010.91;4873816;29;20045;-88
2024/01/11 01:58:03;;;;;;;26.25;17.67;;;;;;;16.02;38.09;94019.53;4888598;29;20063;-89
2024/01/11 02:00:29;;;;;;;26.58;18.90;;;;;;;16.05;37.75;94015.81;4890735;29;20088;-88
2024/01/11 02:02:54;;;;;;;25.13;18.27;;;;;;;15.99;38.05;94015.03;4873947;29;20044;-88
2024/01/11 02:05:20;;;;;;;25.65;18.48;;;;;;;15.99;38.04;94017.75;4890059;29;20041;-88
2024/01/11 02:07:45;;;;;;;23.63;17.45;;;;;;;15.98;37.89;94016.25;4873342;29;20045;-88
2024/01/11 02:10:11;;;;;;;23.75;16.60;;;;;;;15.92;38.34;94018.94;4873666;29;20033;-87
2024/01/11 02:12:38;;;;;;;26.10;18.73;;;;;;;15.91;38.13;94013.94;4859711;29;20033;-88
2024/01/11 02:15:05;;;;;;;24.67;17.17;;;;;;;15.94;38.30;94013.75;4859004;29;20558;-88
2024/01/11 02:17:31;;;;;;;28.00;17.95;;;;;;;15.94;38.49;94026.63;4866745;29;21967;-89
2024/01/11 02:19:56;;;;;;;23.77;17.40;;;;;;;16.08;37.70;94014.88;4874741;29;20044;-88
2024/01/11 02:22:24;;;;;;;23.98;17.33;;;;;;;16.11;37.38;94003.00;4871381;29;20064;-89
2024/01/11 02:24:49;;;;;;;26.08;17.52;;;;;;;16.02;38.16;94008.63;4857830;29;20053;-89
2024/01/11 02:27:15;;;;;;;24.15;16.95;;;;;;;16.09;37.51;94011.66;4857334;29;20044;-88
2024/01/11 02:29:41;;;;;;;21.85;16.13;;;;;;;15.99;38.02;94009.59;4858668;29;20056;-88
2024/01/11 02:32:06;;;;;;;23.60;16.75;;;;;;;15.98;37.81;94010.81;4873583;29;20033;-88
2024/01/11 02:34:32;;;;;;;22.17;16.05;;;;;;;16.07;37.70;94005.94;4874369;29;20504;-88
2024/01/11 02:36:57;;;;;;;23.27;16.30;;;;;;;16.01;37.93;94007.88;4873226;29;20040;-89
2024/01/11 02:39:23;;;;;;;21.80;15.52;;;;;;;16.03;37.66;94016.31;4857616;29;20047;-88
2024/01/11 02:41:50;;;;;;;23.25;16.80;;;;;;;16.02;37.83;94001.16;4874468;29;20047;-88
2024/01/11 02:44:16;;;;;;;18.90;14.90;;;;;;;16.00;37.64;93995.47;4874363;29;20044;-88
2024/01/11 02:46:41;;;;;;;23.00;16.58;;;;;;;16.03;37.69;93999.94;4850867;29;20052;-88
2024/01/11 02:49:07;;;;;;;22.15;15.15;;;;;;;15.98;37.83;93989.75;4873362;29;20040;-88
2024/01/11 02:51:32;;;;;;;19.60;15.23;;;;;;;16.00;37.42;93994.72;4861350;29;20049;-88
2024/01/11 02:53:58;;;;;;;19.67;14.93;;;;;;;15.98;38.04;93986.28;4855843;29;20371;-88
2024/01/11 02:56:23;;;;;;;20.60;15.20;;;;;;;15.96;37.76;93989.47;4866152;29;20049;-88
2024/01/11 02:58:49;;;;;;;23.75;15.30;;;;;;;15.90;37.81;93990.63;4874192;29;20040;-88
2024/01/11 03:01:15;;;;;;;22.27;15.40;;;;;;;15.92;37.86;93985.47;4872695;29;20048;-89
2024/01/11 03:03:41;;;;;;;19.92;15.48;;;;;;;15.97;38.02;93976.59;4852598;29;20045;-88
2024/01/11 03:06:06;;;;;;;20.08;14.93;;;;;;;15.96;37.62;93981.28;4857194;29;20107;-88
2024/01/11 03:08:32;;;;;;;20.33;15.48;;;;;;;15.91;38.29;93981.22;4857597;29;20048;-88
2024/01/11 03:10:58;;;;;;;21.02;14.55;;;;;;;16.00;37.56;93968.19;4874012;29;20048;-88
2024/01/11 03:13:23;;;;;;;23.98;15.30;;;;;;;15.92;38.06;93966.38;4903599;29;20044;-88
2024/01/11 03:15:49;;;;;;;19.88;14.23;;;;;;;15.97;37.70;93960.97;4872435;29;20068;-88
2024/01/11 03:18:15;;;;;;;20.58;14.77;;;;;;;15.94;38.04;93961.94;4870046;29;20044;-88
2024/01/11 03:20:42;;;;;;;23.00;14.93;;;;;;;15.98;37.43;93961.72;4873273;29;20052;-89
2024/01/11 03:23:08;;;;;;;18.33;13.48;;;;;;;16.01;37.48;93952.59;4888899;29;20047;-88
2024/01/11 03:25:33;;;;;;;20.48;14.70;;;;;;;16.00;38.06;93949.13;4872573;29;20052;-87
2024/01/11 03:27:59;;;;;;;21.05;14.60;;;;;;;16.00;37.82;93943.66;4889334;29;20111;-89
2024/01/11 03:30:25;;;;;;;19.88;14.50;;;;;;;16.07;37.49;93942.47;4872414;29;20041;-88
2024/01/11 03:32:50;;;;;;;18.42;13.38;;;;;;;16.02;37.60;93948.63;4888841;29;20080;-88
2024/01/11 03:35:17;;;;;;;20.80;15.07;;;;;;;16.00;37.67;93948.38;4873142;29;20052;-88
2024/01/11 03:37:42;;;;;;;20.48;14.52;;;;;;;16.00;37.82;93951.84;4887755;29;20044;-88
2024/01/11 03:40:08;;;;;;;22.23;14.82;;;;;;;15.99;37.81;93958.53;4864496;29;20053;-88
2024/01/11 03:42:33;;;;;;;18.77;13.32;;;;;;;16.00;37.89;93951.84;4870239;29;20067;-88
2024/01/11 03:44:59;;;;;;;19.90;13.85;;;;;;;16.04;37.62;93943.41;4865432;29;20526;-88
2024/01/11 03:47:25;;;;;;;18.95;14.10;;;;;;;16.06;37.90;93947.16;4853605;29;20052;-88
2024/01/11 03:49:52;;;;;;;17.85;12.80;;;;;;;15.99;37.89;93941.41;4876938;29;20040;-88
2024/01/11 03:52:17;;;;;;;16.90;13.38;;;;;;;16.01;38.04;93947.88;4873889;29;20075;-88
2024/01/11 03:54:43;;;;;;;18.52;13.55;;;;;;;15.97;38.30;93944.63;4856921;29;20520;-88
2024/01/11 03:57:08;;;;;;;17.75;13.55;;;;;;;16.03;37.94;93950.09;4870180;29;20040;-88
2024/01/11 03:59:35;;;;;;;19.27;13.73;;;;;;;15.94;38.26;93955.75;4884182;29;20096;-88
2024/01/11 04:02:00;;;;;;;17.92;12.02;;;;;;;15.94;37.98;93951.03;4857275;29;20116;-88
2024/01/11 04:04:26;;;;;;;18.23;13.23;;;;;;;15.91;37.88;93949.25;4856762;29;20051;-88
2024/01/11 04:06:51;;;;;;;17.20;12.77;;;;;;;15.90;38.14;93945.03;4856778;29;20055;-88
2024/01/11 04:09:17;;;;;;;17.75;12.50;;;;;;;15.92;37.86;93945.31;4872858;29;20040;-88
2024/01/11 04:11:42;;;;;;;16.83;12.18;;;;;;;15.98;37.82;93948.84;4873025;29;20068;-88
2024/01/11 04:14:08;;;;;;;18.60;13.32;;;;;;;15.93;37.60;93943.34;4871657;29;20044;-89
2024/01/11 04:16:34;;;;;;;19.27;12.90;;;;;;;15.99;37.54;93949.59;4871564;29;20043;-88
2024/01/11 04:19:00;;;;;;;18.17;13.05;;;;;;;15.99;37.65;93941.41;4856271;29;20053;-88
2024/01/11 04:21:30;;;;;;;177.15;133.60;;;;;;;16.00;37.81;93940.19;4869760;29;20766;-88
2024/01/11 04:24:01;;;;;;;15.45;12.57;;;;;;;15.92;38.31;93939.09;4867583;29;20045;-89
2024/01/11 04:26:27;;;;;;;;;;;;;;;15.96;37.97;93928.75;4858862;29;20045;-88
2024/01/11 04:28:53;;;;;;;18.83;13.73;;;;;;;15.93;38.10;93933.19;4874090;29;19958;-89
2024/01/11 04:31:20;;;;;;;20.50;13.43;;;;;;;16.03;37.75;93926.31;4890785;29;20051;-89
2024/01/11 04:33:46;;;;;;;24.77;15.80;;;;;;;16.06;37.92;93927.31;4878665;29;20076;-91
2024/01/11 04:36:13;;;;;;;150.70;101.18;;;;;;;15.99;38.31;93923.06;4865877;29;20064;-90
2024/01/11 04:38:39;;;;;;;68.95;48.67;;;;;;;16.05;37.83;93918.41;4870796;29;20108;-90
2024/01/11 04:41:09;;;;;;;29.25;22.33;;;;;;;16.03;38.04;93931.75;4869881;29;20060;-88
2024/01/11 04:43:48;;;;;;;31.42;15.82;;;;;;;16.10;37.80;93930.59;4878061;29;20412;-87
2024/01/11 04:46:19;;;;;;;22.38;15.30;;;;;;;16.07;38.03;93934.28;4876160;29;20560;-89
2024/01/11 04:48:45;;;;;;;;;;;;;;;16.03;38.20;93920.09;4880790;29;20057;-86
2024/01/11 04:51:12;;;;;;;22.98;15.68;;;;;;;16.03;37.94;93933.75;4892535;29;19923;-87
2024/01/11 04:53:39;;;;;;;27.42;17.40;;;;;;;16.02;37.97;93946.63;4860185;29;20529;-86
2024/01/11 04:56:04;;;;;;;32.85;18.52;;;;;;;16.05;38.26;93951.13;4873902;29;20132;-86
2024/01/11 04:58:30;;;;;;;31.38;19.00;;;;;;;16.05;37.83;93953.84;4873561;29;20147;-86
2024/01/11 05:00:55;;;;;;;38.33;22.27;;;;;;;16.01;38.41;93938.97;4860525;29;20052;-86
2024/01/11 05:03:21;;;;;;;91.65;33.67;;;;;;;16.00;38.36;93940.94;4874691;29;20409;-86
2024/01/11 05:05:46;;;;;;;57.20;27.95;;;;;;;16.02;37.84;93937.72;4875178;29;20054;-85
2024/01/11 05:08:12;;;;;;;54.45;25.73;;;;;;;16.02;38.12;93935.72;4872474;29;20128;-86
2024/01/11 05:10:37;;;;;;;72.63;35.58;;;;;;;16.06;37.81;93938.25;4860761;29;20052;-85
2024/01/11 05:13:03;;;;;;;124.28;56.92;;;;;;;16.07;37.91;93931.56;4890069;29;20048;-87
2024/01/11 05:15:28;;;;;;;90.55;39.03;;;;;;;15.95;33.52;93943.59;4877735;29;20192;-86
2024/01/11 05:17:56;;;;;;;96.80;39.83;;;;;;;15.58;30.43;93944.22;4886859;29;20144;-87
2024/01/11 05:20:22;;;;;;;90.80;39.30;;;;;;;15.51;29.95;93954.75;4888661;29;20045;-88
2024/01/11 05:22:47;;;;;;;150.10;64.07;;;;;;;15.51;30.99;93963.69;4874584;29;20089;-89
2024/01/11 05:25:14;;;;;;;140.27;62.63;;;;;;;15.63;30.56;93957.16;4874943;29;20453;-88
2024/01/11 05:27:39;;;;;;;179.57;81.22;;;;;;;15.73;31.56;93960.50;4875324;29;20045;-87
2024/01/11 05:30:06;;;;;;;176.45;72.90;;;;;;;15.78;31.77;93962.53;4872565;29;20452;-86
2024/01/11 05:32:31;;;;;;;135.40;58.47;;;;;;;15.85;34.23;93966.78;4870003;29;20075;-87
2024/01/11 05:34:57;;;;;;;108.53;52.55;;;;;;;15.90;35.07;93972.31;4858236;29;20612;-87
2024/01/11 05:37:22;;;;;;;124.10;60.40;;;;;;;15.79;34.05;93961.31;4874352;29;20108;-87
2024/01/11 05:39:48;;;;;;;167.75;67.45;;;;;;;15.75;34.30;93966.97;4874266;29;20040;-84
2024/01/11 05:42:13;;;;;;;217.02;89.85;;;;;;;15.87;35.18;93970.53;4890193;29;20132;-87
2024/01/11 05:44:41;;;;;;;176.52;76.68;;;;;;;15.84;35.30;93968.75;4887465;29;20041;-85
2024/01/11 05:47:07;;;;;;;170.77;72.07;;;;;;;15.89;35.58;93975.50;4891848;29;20455;-91
2024/01/11 05:49:33;;;;;;;176.65;76.55;;;;;;;15.77;35.68;93983.59;4876281;29;20040;-88
2024/01/11 05:51:58;;;;;;;173.43;76.05;;;;;;;15.90;35.53;93987.91;4873519;29;20045;-88
2024/01/11 05:54:24;;;;;;;178.02;85.40;;;;;;;15.88;35.76;93980.22;4888924;29;20052;-88
2024/01/11 05:56:52;;;;;;;185.60;87.15;;;;;;;15.82;35.60;93967.75;4885890;29;20385;-86
2024/01/11 05:59:17;;;;;;;191.35;81.40;;;;;;;15.88;35.69;93963.09;4884472;29;20049;-86
2024/01/11 06:01:43;;;;;;;211.32;89.05;;;;;;;15.97;35.32;93974.63;4869659;29;20531;-85
2024/01/11 06:04:08;;;;;;;197.88;87.22;;;;;;;15.98;35.66;93973.38;4869293;29;21189;-86
2024/01/11 06:06:34;;;;;;;227.38;97.93;;;;;;;15.98;35.33;93964.47;4874193;29;20113;-86
2024/01/11 06:09:00;;;;;;;195.95;89.70;;;;;;;15.99;35.71;93974.13;4873595;29;20070;-85
2024/01/11 06:11:25;;;;;;;234.52;98.20;;;;;;;15.98;35.51;93976.13;4872311;29;20075;-85
2024/01/11 06:13:51;;;;;;;211.38;97.53;;;;;;;15.96;35.50;93975.84;4871645;29;20610;-85
2024/01/11 06:16:16;;;;;;;230.05;109.97;;;;;;;15.95;35.84;93984.50;4869513;29;20040;-85
2024/01/11 06:18:42;;;;;;;220.25;109.82;;;;;;;15.98;35.76;93980.81;4873160;29;20045;-86
2024/01/11 06:21:07;;;;;;;245.45;109.25;;;;;;;16.03;35.82;93980.09;4888956;29;20044;-85
2024/01/11 06:23:33;;;;;;;263.10;121.63;;;;;;;16.05;35.50;93983.09;4889265;29;20057;-85
2024/01/11 06:25:58;;;;;;;275.75;129.15;;;;;;;16.00;35.62;93972.91;4871152;29;20449;-87
2024/01/11 06:28:24;;;;;;;249.38;114.80;;;;;;;15.95;35.70;93968.88;4886208;29;20087;-84
2024/01/11 06:30:49;;;;;;;247.10;123.35;;;;;;;15.92;36.13;93971.81;4870015;29;20040;-86
2024/01/11 06:33:15;;;;;;;235.65;113.00;;;;;;;16.02;35.90;93967.72;4886612;29;20040;-85
2024/01/11 06:35:40;;;;;;;268.83;135.05;;;;;;;16.09;35.89;93970.75;4890369;29;20095;-86
2024/01/11 06:38:06;;;;;;;255.40;115.57;;;;;;;16.01;35.38;93964.25;4870571;29;20040;-85
2024/01/11 06:40:31;;;;;;;260.42;118.88;;;;;;;15.97;34.77;93969.16;4883691;29;20051;-87
2024/01/11 06:42:57;;;;;;;296.30;137.90;;;;;;;16.06;35.15;93977.16;4868306;29;20449;-85
2024/01/11 06:45:23;;;;;;;248.75;119.78;;;;;;;16.09;34.97;93980.91;4866263;29;20064;-87
2024/01/11 06:47:49;;;;;;;266.70;134.35;;;;;;;16.06;35.34;93968.22;4858169;29;20041;-87
2024/01/11 06:50:14;;;;;;;359.55;165.00;;;;;;;16.01;35.88;93974.41;4890051;29;20040;-88
2024/01/11 06:52:40;;;;;;;240.32;115.75;;;;;;;15.94;33.86;93983.00;4845596;29;20045;-86
2024/01/11 06:55:05;;;;;;;235.43;112.93;;;;;;;15.88;34.01;93982.94;4867387;29;20041;-87
2024/01/11 06:57:31;;;;;;;295.25;136.45;;;;;;;15.97;34.42;93984.78;4887120;29;20050;-87
2024/01/11 06:59:57;;;;;;;285.27;136.32;;;;;;;16.05;35.29;93967.50;4849800;29;20189;-86
2024/01/11 07:02:23;;;;;;;280.48;132.15;;;;;;;16.10;35.39;93974.22;4855412;29;20414;-88
2024/01/11 07:04:49;;;;;;;280.33;125.80;;;;;;;16.12;35.52;93979.94;4870671;29;20040;-88
2024/01/11 07:07:14;;;;;;;244.20;127.45;;;;;;;16.17;35.64;93984.72;4871259;29;20051;-88
2024/01/11 07:09:40;;;;;;;251.57;125.65;;;;;;;16.19;35.69;93993.16;4862962;29;20055;-84
2024/01/11 07:12:05;;;;;;;266.02;128.23;;;;;;;16.19;35.24;93997.88;4883277;29;20044;-85
2024/01/11 07:14:31;;;;;;;245.48;120.63;;;;;;;16.15;36.20;93994.59;4874446;29;20051;-85
2024/01/11 07:16:57;;;;;;;232.65;118.35;;;;;;;16.19;35.64;93992.41;4850371;29;20045;-85
2024/01/11 07:19:23;;;;;;;235.68;118.18;;;;;;;16.09;35.87;93987.13;4871159;29;20686;-85
2024/01/11 07:21:48;;;;;;;225.23;109.20;;;;;;;16.09;35.63;93994.53;4880343;29;20108;-87
2024/01/11 07:24:14;;;;;;;210.18;107.38;;;;;;;16.17;35.62;93989.41;4871233;29;20045;-88
2024/01/11 07:26:40;;;;;;;203.35;101.18;;;;;;;16.08;35.83;93995.78;4848982;29;20044;-90
2024/01/11 07:29:05;;;;;;;205.15;99.90;;;;;;;16.06;35.80;94009.91;4872928;29;20131;-90
2024/01/11 07:31:31;;;;;;;183.60;99.38;;;;;;;16.13;35.36;94010.69;4868664;29;20528;-88
2024/01/11 07:33:57;;;;;;;163.30;89.32;;;;;;;16.14;35.50;94004.78;4861633;29;20061;-86
2024/01/11 07:36:23;;;;;;;177.30;92.38;;;;;;;16.08;35.38;94001.97;4869054;29;20052;-89
2024/01/11 07:38:48;;;;;;;189.57;97.05;;;;;;;16.09;35.93;94011.66;4838537;29;20059;-86
2024/01/11 07:41:14;;;;;;;171.52;94.22;;;;;;;16.14;35.24;94012.94;4840460;29;20478;-89
2024/01/11 07:43:40;;;;;;;174.90;95.22;;;;;;;16.20;35.54;94008.31;4840100;29;20515;-89
2024/01/11 07:46:07;;;;;;;192.98;99.03;;;;;;;16.17;35.93;94013.97;4870625;29;20044;-89
2024/01/11 07:48:32;;;;;;;206.43;103.90;;;;;;;16.20;35.81;94010.28;4868903;29;20599;-86
2024/01/11 07:50:59;;;;;;;213.43;111.90;;;;;;;16.22;35.29;94022.22;4851002;29;20041;-85
2024/01/11 07:53:25;;;;;;;334.95;122.10;;;;;;;16.18;35.70;94040.03;4868711;29;20045;-87
2024/01/11 07:55:51;;;;;;;247.60;104.90;;;;;;;16.31;35.49;94032.94;4866763;29;20045;-86
2024/01/11 07:58:25;;;;;;;208.75;110.18;;;;;;;15.98;33.32;94033.38;4850973;29;20100;-87
2024/01/11 08:00:50;;;;;;;212.20;106.50;;;;;;;16.09;32.59;94030.75;4871841;29;20036;-86
2024/01/11 08:03:16;;;;;;;204.93;95.47;;;;;;;16.03;32.71;94032.66;4875396;29;20036;-87
2024/01/11 08:05:43;;;;;;;222.23;102.82;;;;;;;16.02;32.84;94038.63;4876503;29;20096;-86
2024/01/11 08:08:08;;;;;;;181.70;92.70;;;;;;;15.99;31.35;94043.06;4874547;29;20112;-87
2024/01/11 08:10:34;;;;;;;162.65;72.32;;;;;;;15.68;29.09;94051.84;4875956;29;20509;-87
2024/01/11 08:13:00;;;;;;;183.02;70.20;;;;;;;15.38;27.79;94048.47;4856333;29;20072;-86
2024/01/11 08:15:25;;;;;;;149.70;63.35;;;;;;;15.40;28.27;94042.56;4843199;29;20047;-86
2024/01/11 08:17:51;;;;;;;165.63;62.90;;;;;;;15.58;29.48;94036.13;4860009;29;20048;-86
2024/01/11 08:20:16;;;;;;;196.35;77.63;;;;;;;15.60;29.53;94037.13;4858765;29;20037;-86
2024/01/11 08:22:43;;;;;;;198.73;77.03;;;;;;;15.70;30.46;94033.06;4861804;29;20048;-86
2024/01/11 08:25:09;;;;;;;179.50;76.18;;;;;;;15.77;31.13;94040.81;4840355;29;20041;-87
2024/01/11 08:27:34;;;;;;;203.48;83.35;;;;;;;15.84;31.28;94045.09;4877644;29;20148;-85
2024/01/11 08:30:00;;;;;;;185.45;85.15;;;;;;;15.89;31.73;94046.41;4857650;29;20167;-88
2024/01/11 08:32:26;;;;;;;220.75;96.85;;;;;;;15.89;32.94;94044.41;4847810;29;20053;-87
2024/01/11 08:34:51;;;;;;;241.30;106.60;;;;;;;15.95;33.36;94049.94;4889241;29;20061;-87
2024/01/11 08:37:17;;;;;;;287.13;130.35;;;;;;;15.98;33.58;94051.72;4853339;29;20224;-86
2024/01/11 08:39:42;;;;;;;215.38;98.70;;;;;;;16.02;34.15;94041.34;4877399;29;20100;-86
2024/01/11 08:42:08;;;;;;;321.70;163.95;;;;;;;15.97;33.55;94048.25;4871493;29;20167;-88
2024/01/11 08:44:35;;;;;;;258.10;130.40;;;;;;;16.04;34.53;94047.81;4895341;29;20048;-87
2024/01/11 08:47:03;;;;;;;301.70;145.35;;;;;;;15.97;34.07;94050.22;4877504;29;20068;-87
2024/01/11 08:49:29;;;;;;;253.32;123.53;;;;;;;16.04;34.28;94053.25;4864888;29;20047;-88
2024/01/11 08:51:54;;;;;;;272.88;131.60;;;;;;;16.10;34.28;94056.78;4895531;29;20041;-89
2024/01/11 08:54:20;;;;;;;314.15;156.20;;;;;;;16.09;34.54;94049.09;4880703;29;20041;-89
2024/01/11 08:56:46;;;;;;;319.83;164.20;;;;;;;16.16;34.23;94061.56;4879468;29;20044;-86
2024/01/11 08:59:11;;;;;;;347.55;191.75;;;;;;;16.07;34.83;94065.94;4895707;29;20543;-88
2024/01/11 09:01:37;;;;;;;386.15;204.95;;;;;;;16.17;34.49;94065.78;4876041;29;20502;-86
2024/01/11 09:04:03;;;;;;;370.20;202.63;;;;;;;16.07;34.07;94062.47;4893331;29;20286;-92
2024/01/11 09:06:29;;;;;;;372.30;213.77;;;;;;;16.09;33.88;94070.91;4863128;29;20071;-89
2024/01/11 09:08:54;;;;;;;368.08;204.25;;;;;;;16.19;34.04;94053.19;4856990;29;20084;-88
2024/01/11 09:11:20;;;;;;;414.98;232.40;;;;;;;16.22;34.52;94048.75;4856041;29;20420;-89
2024/01/11 09:13:45;;;;;;;451.70;242.57;;;;;;;16.17;34.37;94052.91;4874855;29;20435;-88
2024/01/11 09:16:15;;;;;;;429.58;241.30;;;;;;;16.14;34.55;94056.59;4875529;29;20111;-87
2024/01/11 09:18:42;;;;;;;393.40;218.48;;;;;;;16.13;34.27;94046.16;4878111;29;20067;-88
2024/01/11 09:21:07;;;;;;;346.40;185.70;;;;;;;16.09;33.79;94044.38;4891729;29;20036;-88
2024/01/11 09:23:34;;;;;;;384.67;197.07;;;;;;;16.18;33.83;94048.19;4879878;29;20080;-88
2024/01/11 09:25:59;;;;;;;384.88;206.30;;;;;;;16.24;33.94;94040.84;4879159;29;20044;-87
2024/01/11 09:28:25;;;;;;;416.27;202.55;;;;;;;16.32;34.52;94028.25;4878994;29;20036;-88
2024/01/11 09:30:50;;;;;;;377.63;201.80;;;;;;;16.30;34.26;94028.72;4856961;29;20599;-87
2024/01/11 09:33:16;;;;;;;357.25;192.40;;;;;;;16.29;34.59;94021.00;4861626;29;20032;-86
2024/01/11 09:35:41;;;;;;;367.50;193.13;;;;;;;16.29;34.51;94021.00;4875804;29;20053;-86
2024/01/11 09:38:07;;;;;;;343.52;191.85;;;;;;;16.30;34.49;94009.63;4891772;29;20036;-87
2024/01/11 09:40:32;;;;;;;332.70;169.52;;;;;;;16.24;33.62;93994.47;4871816;29;20044;-87
2024/01/11 09:42:58;;;;;;;352.60;187.43;;;;;;;16.26;33.85;93989.25;4871112;29;20047;-87
2024/01/11 09:45:24;;;;;;;347.10;187.48;;;;;;;16.20;34.51;93996.66;4874807;29;20048;-87
2024/01/11 09:47:50;;;;;;;356.85;203.55;;;;;;;16.28;33.96;93994.97;4862648;29;20527;-86
2024/01/11 09:50:17;;;;;;;353.98;211.85;;;;;;;16.32;34.35;93993.53;4853008;29;20056;-87
2024/01/11 09:52:49;;;;;;;357.73;213.30;;;;;;;16.38;34.32;93999.78;4876381;29;20139;-87
2024/01/11 09:55:16;;;;;;;374.17;227.65;;;;;;;16.33;34.34;94002.47;4876703;29;20047;-88
2024/01/11 09:57:44;;;;;;;386.55;228.63;;;;;;;16.37;34.54;94000.28;4876215;29;20041;-87
2024/01/11 10:00:10;;;;;;;391.13;231.93;;;;;;;16.28;34.64;94003.16;4873309;29;20709;-86
2024/01/11 10:02:38;;;;;;;375.90;225.63;;;;;;;16.39;34.70;93998.56;4861853;29;20048;-86
2024/01/11 10:05:05;;;;;;;406.13;227.15;;;;;;;16.37;34.69;93992.84;4873818;29;20071;-87
2024/01/11 10:07:30;;;;;;;378.63;219.90;;;;;;;16.37;34.55;94009.19;4859393;29;20385;-85
2024/01/11 10:09:58;;;;;;;389.60;224.30;;;;;;;16.45;34.92;93996.59;4875859;29;20158;-83
2024/01/11 10:12:24;;;;;;;402.65;232.85;;;;;;;16.30;34.87;93990.53;4874479;29;20708;-83
2024/01/11 10:14:53;;;;;;;404.17;237.52;;;;;;;16.31;35.25;93981.13;4861166;29;20526;-83
2024/01/11 10:17:19;;;;;;;395.65;229.23;;;;;;;16.39;34.91;93984.16;4874358;29;20060;-83
2024/01/11 10:19:44;;;;;;;376.83;221.98;;;;;;;16.45;35.40;93982.25;4877374;29;20517;-84
2024/01/11 10:22:12;;;;;;;385.08;234.55;;;;;;;16.39;34.97;93986.88;4887682;29;20040;-83
2024/01/11 10:24:39;;;;;;;379.83;237.30;;;;;;;16.33;35.26;93988.81;4872656;29;20047;-85
2024/01/11 10:27:05;;;;;;;352.33;212.73;;;;;;;16.42;35.06;93999.56;4856626;29;20048;-88
2024/01/11 10:29:31;;;;;;;348.67;208.07;;;;;;;16.43;35.25;94006.53;4875687;29;20531;-88
2024/01/11 10:31:57;;;;;;;347.42;207.80;;;;;;;16.48;35.32;93991.41;4876187;29;20048;-86
2024/01/11 10:34:24;;;;;;;359.92;210.52;;;;;;;16.51;35.26;93990.44;4877036;29;20793;-87
2024/01/11 10:36:52;;;;;;;320.58;191.95;;;;;;;16.52;35.21;93984.50;4876273;29;20622;-88
2024/01/11 10:39:18;;;;;;;315.40;186.30;;;;;;;16.53;35.50;93979.81;4876056;29;20056;-87
2024/01/11 10:41:47;;;;;;;301.50;185.98;;;;;;;16.46;35.22;93965.34;4859930;29;20036;-88
2024/01/11 10:44:22;;;;;;;302.08;178.00;;;;;;;16.48;35.16;93964.13;4843234;29;20044;-87
2024/01/11 10:46:49;;;;;;;302.50;180.35;;;;;;;16.52;35.08;93968.13;4865509;29;20051;-87
2024/01/11 10:49:18;;;;;;;259.15;161.07;;;;;;;16.51;35.61;93968.63;4857835;29;20052;-88
2024/01/11 10:51:58;;;;;;;288.20;171.80;;;;;;;16.53;35.58;93974.34;4875906;29;20522;-88
2024/01/11 10:54:24;;;;;;;163.20;91.38;;;;;;;16.21;31.01;93982.53;4890741;29;20055;-88
2024/01/11 10:56:49;;;;;;;175.57;66.88;;;;;;;16.00;30.04;93981.09;4875852;29;20057;-88
2024/01/11 10:59:15;;;;;;;148.10;55.05;;;;;;;15.88;29.06;93976.72;4869440;29;20051;-89
2024/01/11 11:01:40;;;;;;;126.15;49.80;;;;;;;15.66;29.08;93980.72;4859174;29;20048;-89
2024/01/11 11:04:07;;;;;;;122.97;45.85;;;;;;;15.63;29.55;93981.69;4873766;29;20231;-89
2024/01/11 11:06:34;;;;;;;116.78;49.28;;;;;;;15.83;30.21;93972.72;4874766;29;20367;-88